Weather History for KCBE - November, 2011

Change the Weather History Date:

Friday, November 11, 2011

  Actual Average (KMRB) Record (KMRB)
Temperature  
Mean Temperature 40 °F 46 °F  
Max Temperature 44 °F 56 °F 78 °F (1931)
Min Temperature 35 °F 35 °F 19 °F (1954)
Degree Days  
Heating Degree Days 26 19  
Month to date heating degree days 193  
Since 1 July heating degree days 639  
Cooling Degree Days 0 0  
Month to date cooling degree days 0  
Year to date cooling degree days 895  
Moisture  
Dew Point 28 °F    
Average Humidity 64    
Maximum Humidity 75    
Minimum Humidity 53    
Precipitation  
Precipitation 0.00 in 0.09 in 1.06 in (1995)
Month to date precipitation 1.10  
Year to date precipitation 33.96  
Sea Level Pressure  
Sea Level Pressure 29.97 in    
Wind  
Wind Speed 11 mph (West)    
Max Wind Speed 20 mph    
Max Gust Speed 32 mph    
Visibility 10 miles    
Events      
T = Trace of Precipitation, MM = Missing Value Source: NWS Daily Summary

Daily Weather History Graph

Daily Weather History Graph

Search for Another Location

Airport or City:

Trip Planner

Search our weather history database for the weather conditions in past years. The results will help you decide how hot, cold, wet, or windy it might be!

Date:

Astronomy

Nov. 11, 2011 Rise Set
Actual Time 6:54 AM EST 5:03 PM EST
Civil Twilight 6:25 AM EST 5:31 PM EST
Nautical Twilight 5:53 AM EST 6:04 PM EST
Astronomical Twilight 5:21 AM EST 6:35 PM EST
Moon 5:31 PM EST (11/11) 7:40 AM EST (11/11)
Length of Visible Light 11h 05m
Length of Day
10h 08m
Full, 99% of the Moon is Illuminated
Nov 11
Full
Nov 18
Last Quarter
Nov 25
New
Dec 2
First Quarter
Dec 10
Full

Hourly Weather History & Observations

Time (EST) Temp. Windchill Dew Point Humidity Pressure Visibility Wind Dir Wind Speed Gust Speed Precip Events Conditions
12:13 AM 41.0 °F 34.3 °F 32.0 °F 70% 29.90 in 10.0 mi West 11.5 mph - N/A   Mostly Cloudy
12:32 AM 39.2 °F 32.5 °F 30.2 °F 70% 29.90 in 10.0 mi West 10.4 mph - N/A   Scattered Clouds
12:51 AM 39.2 °F 33.0 °F 30.2 °F 70% 29.90 in 10.0 mi West 9.2 mph - N/A   Clear
1:11 AM 39.2 °F 35.0 °F 28.4 °F 65% 29.90 in 10.0 mi West 5.8 mph 10.4 mph N/A   Scattered Clouds
1:30 AM 37.4 °F 31.4 °F 28.4 °F 70% 29.90 in 10.0 mi West 8.1 mph - N/A   Mostly Cloudy
1:49 AM 37.4 °F 32.8 °F 28.4 °F 70% 29.90 in 10.0 mi West 5.8 mph - N/A   Mostly Cloudy
2:09 AM 37.4 °F 28.5 °F 26.6 °F 65% 29.90 in 10.0 mi West 15.0 mph 27.6 mph N/A   Mostly Cloudy
2:28 AM 37.4 °F 30.3 °F 26.6 °F 65% 29.90 in 10.0 mi West 10.4 mph 16.1 mph N/A   Mostly Cloudy
2:47 AM 37.4 °F 28.9 °F 28.4 °F 70% 29.90 in 10.0 mi West 13.8 mph 19.6 mph N/A   Scattered Clouds
3:07 AM 37.4 °F 31.4 °F 28.4 °F 70% 29.90 in 10.0 mi West 8.1 mph 17.3 mph N/A   Mostly Cloudy
3:26 AM 37.4 °F 28.9 °F 26.6 °F 65% 29.91 in 10.0 mi West 13.8 mph 19.6 mph N/A   Mostly Cloudy
3:45 AM 37.4 °F 27.8 °F 26.6 °F 65% 29.90 in 10.0 mi West 17.3 mph 27.6 mph N/A   Mostly Cloudy
4:05 AM 35.6 °F 24.8 °F 26.6 °F 70% 29.91 in 10.0 mi West 19.6 mph 27.6 mph N/A   Mostly Cloudy
4:24 AM 35.6 °F 27.5 °F 26.6 °F 70% 29.92 in 10.0 mi West 11.5 mph 24.2 mph N/A   Overcast
4:43 AM 35.6 °F 31.7 °F 26.6 °F 70% 29.92 in 10.0 mi West 4.6 mph - N/A   Overcast
5:03 AM 35.6 °F 27.5 °F 24.8 °F 65% 29.92 in 10.0 mi West 11.5 mph 21.9 mph N/A   Scattered Clouds
5:22 AM 35.6 °F 29.2 °F 26.6 °F 70% 29.92 in 10.0 mi West 8.1 mph - N/A   Scattered Clouds
5:41 AM 35.6 °F 28.6 °F 26.6 °F 70% 29.92 in 10.0 mi West 9.2 mph - N/A   Mostly Cloudy
6:01 AM 35.6 °F 28.0 °F 28.4 °F 75% 29.93 in 10.0 mi West 10.4 mph 17.3 mph N/A   Overcast
6:20 AM 35.6 °F 29.2 °F 28.4 °F 75% 29.93 in 10.0 mi West 8.1 mph 11.5 mph N/A   Mostly Cloudy
6:39 AM 35.6 °F 27.1 °F 28.4 °F 75% 29.94 in 10.0 mi West 12.7 mph 20.7 mph N/A   Mostly Cloudy
6:59 AM 35.6 °F 26.2 °F 26.6 °F 70% 29.94 in 10.0 mi West 15.0 mph 26.5 mph N/A   Scattered Clouds
7:18 AM 35.6 °F 27.5 °F 26.6 °F 70% 29.95 in 10.0 mi West 11.5 mph 20.7 mph N/A   Clear
7:37 AM 35.6 °F 28.0 °F 26.6 °F 70% 29.95 in 10.0 mi West 10.4 mph 21.9 mph N/A   Scattered Clouds
7:56 AM 35.6 °F 27.1 °F 26.6 °F 70% 29.96 in 10.0 mi West 12.7 mph 18.4 mph N/A   Mostly Cloudy
8:16 AM 37.4 °F 28.2 °F 26.6 °F 65% 29.96 in 10.0 mi West 16.1 mph 25.3 mph N/A   Scattered Clouds
8:35 AM 37.4 °F 29.3 °F 28.4 °F 70% 29.97 in 10.0 mi West 12.7 mph 21.9 mph N/A   Clear
8:54 AM 37.4 °F 28.2 °F 28.4 °F 70% 29.97 in 10.0 mi West 16.1 mph 28.8 mph N/A   Clear
9:14 AM 37.4 °F 32.8 °F 28.4 °F 70% 29.98 in 10.0 mi WNW 5.8 mph 25.3 mph N/A   Scattered Clouds
9:33 AM 37.4 °F 30.8 °F 28.4 °F 70% 29.98 in 10.0 mi West 9.2 mph 17.3 mph N/A   Mostly Cloudy
9:52 AM 39.2 °F 30.5 °F 28.4 °F 65% 29.99 in 10.0 mi West 16.1 mph 31.1 mph N/A   Mostly Cloudy
10:12 AM 39.2 °F 32.5 °F 28.4 °F 65% 29.99 in 10.0 mi West 10.4 mph 25.3 mph N/A   Mostly Cloudy
10:31 AM 39.2 °F 31.6 °F 28.4 °F 65% 30.00 in 10.0 mi West 12.7 mph 24.2 mph N/A   Mostly Cloudy
10:50 AM 41.0 °F 32.5 °F 28.4 °F 61% 30.00 in 10.0 mi West 17.3 mph 23.0 mph N/A   Mostly Cloudy
11:09 AM 41.0 °F 32.8 °F 28.4 °F 61% 30.01 in 10.0 mi West 16.1 mph 24.2 mph N/A   Mostly Cloudy
11:29 AM 41.0 °F 33.9 °F 28.4 °F 61% 30.00 in 10.0 mi West 12.7 mph 19.6 mph N/A   Mostly Cloudy
11:48 AM 41.0 °F 33.1 °F 28.4 °F 61% 29.99 in 10.0 mi West 15.0 mph 21.9 mph N/A   Mostly Cloudy
12:07 PM 41.0 °F 33.5 °F 28.4 °F 61% 29.99 in 10.0 mi WNW 13.8 mph 25.3 mph N/A   Mostly Cloudy
12:27 PM 41.0 °F 32.2 °F 28.4 °F 61% 30.00 in 10.0 mi West 18.4 mph 32.2 mph N/A   Mostly Cloudy
12:46 PM 41.0 °F 32.5 °F 28.4 °F 61% 30.00 in 10.0 mi West 17.3 mph 29.9 mph N/A   Scattered Clouds
1:05 PM 41.0 °F 35.2 °F 28.4 °F 61% 30.00 in 10.0 mi West 9.2 mph 24.2 mph N/A   Scattered Clouds
1:24 PM 42.8 °F 39.3 °F 30.2 °F 61% 29.99 in 10.0 mi NW 5.8 mph - N/A   Scattered Clouds
1:25 PM 42.8 °F 38.6 °F 30.2 °F 61% 29.99 in 10.0 mi NW 6.9 mph - N/A   Scattered Clouds
1:44 PM 42.8 °F 35.8 °F 28.4 °F 57% 29.99 in 10.0 mi West 13.8 mph 25.3 mph N/A   Scattered Clouds
2:03 PM 42.8 °F 35.8 °F 30.2 °F 61% 30.00 in 10.0 mi West 13.8 mph 18.4 mph N/A   Scattered Clouds
2:22 PM 44.6 °F 41.4 °F 30.2 °F 57% 30.00 in 10.0 mi WNW 5.8 mph - N/A   Scattered Clouds
2:42 PM 42.8 °F 37.5 °F 30.2 °F 61% 30.00 in 10.0 mi West 9.2 mph 26.5 mph N/A   Clear
3:01 PM 42.8 °F 36.2 °F 28.4 °F 57% 30.01 in 10.0 mi WSW 12.7 mph 20.7 mph N/A   Scattered Clouds
3:20 PM 42.8 °F 36.6 °F 28.4 °F 57% 30.02 in 10.0 mi West 11.5 mph 20.7 mph N/A   Scattered Clouds
3:40 PM 42.8 °F - 28.4 °F 57% 30.02 in 10.0 mi Calm Calm - N/A   Scattered Clouds
3:59 PM 42.8 °F 41.1 °F 28.4 °F 57% 30.03 in 10.0 mi West 3.5 mph - N/A   Mostly Cloudy
4:18 PM 42.8 °F 37.0 °F 26.6 °F 53% 30.03 in 10.0 mi West 10.4 mph - N/A   Mostly Cloudy
4:37 PM 42.8 °F 41.1 °F 26.6 °F 53% 30.03 in 10.0 mi SW 3.5 mph 16.1 mph N/A   Mostly Cloudy
4:57 PM 42.8 °F 38.0 °F 26.6 °F 53% 30.03 in 10.0 mi West 8.1 mph - N/A   Overcast
5:16 PM 42.8 °F 37.5 °F 26.6 °F 53% 30.04 in 10.0 mi West 9.2 mph 20.7 mph N/A   Mostly Cloudy
5:35 PM 42.8 °F 38.6 °F 26.6 °F 53% 30.05 in 10.0 mi WSW 6.9 mph - N/A   Overcast
5:55 PM 42.8 °F 38.6 °F 26.6 °F 53% 30.06 in 10.0 mi SW 6.9 mph 12.7 mph N/A   Overcast
6:14 PM 41.0 °F 36.4 °F 26.6 °F 57% 30.06 in 10.0 mi West 6.9 mph - N/A   Overcast
6:33 PM 41.0 °F 35.8 °F 26.6 °F 57% 30.07 in 10.0 mi SW 8.1 mph - N/A   Overcast
6:52 PM 41.0 °F 38.0 °F 26.6 °F 57% 30.07 in 10.0 mi SW 4.6 mph - N/A   Mostly Cloudy
7:12 PM 41.0 °F 36.4 °F 26.6 °F 57% 30.07 in 10.0 mi SSW 6.9 mph - N/A   Scattered Clouds
7:31 PM 39.2 °F 37.0 °F 26.6 °F 61% 30.08 in 10.0 mi SW 3.5 mph - N/A   Scattered Clouds
7:50 PM 39.2 °F 35.0 °F 26.6 °F 61% 30.08 in 10.0 mi South 5.8 mph - N/A   Clear
8:10 PM 37.4 °F - 26.6 °F 65% 30.08 in 10.0 mi Calm Calm - N/A   Clear
8:29 PM 37.4 °F 34.9 °F 26.6 °F 65% 30.08 in 10.0 mi SE 3.5 mph - N/A   Clear
8:48 PM 37.4 °F 34.9 °F 26.6 °F 65% 30.09 in 10.0 mi SSE 3.5 mph - N/A   Clear
9:08 PM 35.6 °F 32.8 °F 26.6 °F 70% 30.09 in 10.0 mi SSE 3.5 mph - N/A   Clear
9:27 PM 35.6 °F 29.9 °F 26.6 °F 70% 30.09 in 10.0 mi SSE 6.9 mph - N/A   Clear
9:46 PM 33.8 °F 28.6 °F 26.6 °F 75% 30.10 in 10.0 mi South 5.8 mph - N/A   Clear
10:05 PM 33.8 °F 28.6 °F 26.6 °F 75% 30.10 in 10.0 mi SSE 5.8 mph - N/A   Clear
10:25 PM 33.8 °F 28.6 °F 26.6 °F 75% 30.10 in 10.0 mi SSE 5.8 mph - N/A   Clear
10:44 PM 33.8 °F - 26.6 °F 75% 30.10 in 10.0 mi Calm Calm - N/A   Clear
11:03 PM 32.0 °F - 26.6 °F 80% 30.10 in 10.0 mi Calm Calm - N/A   Clear
11:23 PM 32.0 °F 28.7 °F 26.6 °F 80% 30.10 in 10.0 mi South 3.5 mph - N/A   Clear
11:42 PM 32.0 °F - 26.6 °F 80% 30.11 in 10.0 mi Calm Calm - N/A   Clear